KOCF/OCF METAR and TAF weather

Enter ICAO airport designator
Station Type Date Time Source
KOCF METAR 2020/12/01 20:51 UTC NOAA

KOCF 012051Z 32007KT 10SM CLR 12/M04 A3017 RMK AO2 SLP216 T01171044 56013 $


Station Type Date Time Source
KOCF Decoded METAR 2020/12/01 20:51 UTC NOAA

Ocala, Ocala International Airport-Jim Taylor Field, FL, United States (KOCF) 29-10N 082-13W
Dec 01, 2020 - 03:51 PM EST / 2020.12.01 2051 UTC
Wind: from the NW (320 degrees) at 8 MPH (7 KT):0
Visibility: 10 mile(s):0
Sky conditions: clear
Temperature: 53.1 F (11.7 C)
Dew Point: 24.1 F (-4.4 C)
Relative Humidity: 32%
Pressure (altimeter): 30.17 in. Hg (1021 hPa)
Pressure tendency: 0.04 inches (1.3 hPa) lower than three hours ago
ob: KOCF 012051Z 32007KT 10SM CLR 12/M04 A3017 RMK AO2 SLP216 T01171044 56013
cycle: 21

Station Type Date Time Source
KOCF TAF UTC NOAA

Error!

Example: see airport list